Terminal Aerodrome Forecast
Issued by NWS

Home | Current Version | Previous Version | Text Only | Print | Product List | Glossary On
Versions: 1 2 3 4 5 6 7 8 9 10 11 12 13
000
FTUS43 KGRB 061700 RRA
TAFCWA
TAF
KCWA 061741Z 0618/0718 21012G20KT P6SM SCT060 BKN090
     FM061900 23012G20KT P6SM SCT090
     FM062200 26007KT P6SM BKN200
     FM070500 22005KT P6SM BKN100
     FM070800 22008KT P6SM SCT040 OVC070
      TEMPO 0709/0713 6SM -SN BKN040
     FM071400 29012G20KT P6SM SCT035=

USA.gov is the U.S. government's official web portal to all federal, state and local government web resources and services.